Aérodrome :
LOGIN :

S'inscrire | Disclaimer

   EN    FR    IT 

 










Légende :    VFR   VFR Marginal   IFR   IFR Intensif   IFR Très Intensif
Visi : 
Plafond : 
>= 8 km
>= 3000ft
5 à 8 km
1000 à 3000 ft
1500m à 5 km
500 à 1000 ft
800 à 1500m
200 à 500 ft
< 800m
< 200 ft
Symboles :   Orages  Brouillard  Fortes neiges  Fortes précipitations  Vent > 20 kt
SIGMETs :   Divers  Orages  Givrage  Turbulence  Onde Orograph.  Cendres Volcan.






- Altitude de l'aérodrome : 466 ft


LHPA - Pápa

DERNIER METAR :
  • 170645Z 22008KT CAVOK 00/M02 Q1023 NOSIG RMK BLU

METARs EXPIRÉS :
  • 170615Z 23008KT CAVOK 01/M02 Q1023 NOSIG RMK BLU
  • 170545Z 22010KT CAVOK 00/M02 Q1023 NOSIG RMK BLU
  • 170515Z 23008KT CAVOK 00/M03 Q1024 NOSIG RMK BLU
  • 170445Z 22008KT CAVOK 00/M03 Q1024 NOSIG RMK BLU
  • 170415Z 22008KT CAVOK 02/M03 Q1024 NOSIG RMK BLU

TAF TAF LHPA
Valide du 17 à 06h jusqu'au 18 à 06h UTC


170515Z 1706/1806 24009KT CAVOK
PROB40
TEMPO 1706/1708 8000 MIBCFZFG NSC
BECMG 1708/1712 30010KT 9999 SCT030 BKN080
TEMPO 1712/1722 32015G25KT
PROB40
TEMPO 1714/1721 33020G35KT 9999 -SHRA SCT020 BKN030TCU BKN060
TEMPO 1718/1721 8000 -SHSN BKN015 BKN030TCU
BECMG 1721/1724 CAVOK
TEMPO 1800/1805 32004KT



MET'MAP, la Météo Aéronautique d'un coup d'oeil ! - Copyright ORBIFLY Décembre 2007 - Disclaimer

ORBIFLY MET'MAP TEAM :

Programmation & Développement : Alexandra Zaïnal
Sur une idée originale de : Baudouin d'Aumeries
Assistance à la programmation : Marc-Olivier Méhu
Soutien technique & logistique : Manuel Goepfert

Contact : metmap@orbifly.com




SOURCES & CREDITS :

   NOAA